Time;durP1;ratioP1;P1;durP2;ratioP2;P2;SDS_P1;SDS_P2;PMS_P1;PMS_P2;Temp;Humidity;BMP_temperature;BMP_pressure;BME280_temperature;BME280_humidity;BME280_pressure;Samples;Min_cycle;Max_cycle;Signal;HPM_P1;HPM_P2
2020/12/19 00:01:13;;;;;;;3.67;2.00;;;;;;;8.13;76.86;96849.59;4897898;29;20511;-43
2020/12/19 00:03:39;;;;;;;3.50;1.90;;;;;;;8.13;77.13;96850.44;4897661;28;21252;-42
2020/12/19 00:06:07;;;;;;;4.10;1.70;;;;;;;7.69;77.09;96778.34;4897676;29;20899;-48
2020/12/19 00:08:35;;;;;;;6.30;2.70;;;;;;;8.13;76.86;96846.09;4895809;28;20966;-43
2020/12/19 00:11:01;;;;;;;4.30;1.90;;;;;;;8.18;76.74;96842.44;4897634;29;20876;-44
2020/12/19 00:13:28;;;;;;;5.13;2.00;;;;;;;8.13;76.72;96839.22;4896792;28;20564;-44
2020/12/19 00:15:55;;;;;;;3.40;2.10;;;;;;;8.07;77.14;96827.41;4897322;29;20783;-43
2020/12/19 00:18:22;;;;;;;3.40;2.00;;;;;;;8.06;77.09;96841.28;4896703;28;20587;-42
2020/12/19 00:20:49;;;;;;;5.53;1.87;;;;;;;7.99;77.32;96836.47;4898789;29;20858;-43
2020/12/19 00:23:15;;;;;;;7.90;2.67;;;;;;;7.84;77.56;96819.06;4897702;28;20538;-43
2020/12/19 00:25:43;;;;;;;3.00;1.93;;;;;;;7.84;78.02;96832.88;4898212;29;20547;-44
2020/12/19 00:28:10;;;;;;;2.80;1.80;;;;;;;7.89;77.66;96817.94;4897698;28;20981;-43
2020/12/19 00:30:37;;;;;;;4.23;2.83;;;;;;;7.97;77.41;96825.34;4898035;29;20808;-44
2020/12/19 00:33:04;;;;;;;4.60;2.53;;;;;;;8.08;77.01;96820.50;4899111;28;20931;-43
2020/12/19 00:35:31;;;;;;;10.30;2.27;;;;;;;8.10;76.82;96818.66;4900818;29;20888;-43
2020/12/19 00:37:58;;;;;;;2.90;1.73;;;;;;;8.09;76.98;96820.41;4901178;29;20456;-43
2020/12/19 00:40:24;;;;;;;3.77;2.20;;;;;;;8.10;76.70;96810.88;4902314;28;20566;-44
2020/12/19 00:42:52;;;;;;;3.90;2.00;;;;;;;8.13;76.98;96814.97;4901462;29;20586;-43
2020/12/19 00:45:19;;;;;;;4.27;2.17;;;;;;;8.18;76.40;96811.34;4900800;28;20998;-43
2020/12/19 00:47:46;;;;;;;3.80;1.97;;;;;;;8.16;76.98;96805.41;4901001;29;20480;-43
2020/12/19 00:50:13;;;;;;;7.10;2.47;;;;;;;8.21;76.71;96800.84;4900970;28;20550;-43
2020/12/19 00:52:39;;;;;;;8.93;2.43;;;;;;;7.82;77.46;96731.06;4901172;29;20936;-44
2020/12/19 00:55:07;;;;;;;4.70;2.25;;;;;;;8.00;77.11;96771.59;4900339;28;20571;-43
2020/12/19 00:57:34;;;;;;;3.03;1.70;;;;;;;8.12;76.84;96785.72;4900441;29;20201;-43
2020/12/19 01:00:05;;;;;;;4.83;2.20;;;;;;;8.14;76.70;96790.72;4901026;28;20966;-43
2020/12/19 01:02:35;;;;;;;8.03;2.00;;;;;;;8.00;77.02;96760.38;4901120;29;20623;-44
2020/12/19 01:05:12;;;;;;;5.30;2.37;;;;;;;8.24;76.80;96792.94;4899568;28;20543;-43
2020/12/19 01:07:40;;;;;;;4.10;2.03;;;;;;;8.27;76.80;96792.75;4902683;29;20447;-44
2020/12/19 01:10:08;;;;;;;3.30;2.00;;;;;;;8.34;76.52;96788.03;4900132;28;20500;-49
2020/12/19 01:12:35;;;;;;;4.00;2.57;;;;;;;8.13;76.29;96765.72;4899163;29;21033;-44
2020/12/19 01:15:03;;;;;;;4.13;2.30;;;;;;;8.33;76.15;96791.53;4900410;28;21014;-44
2020/12/19 01:17:30;;;;;;;3.20;2.10;;;;;;;8.17;76.19;96771.59;4899759;29;20971;-44
2020/12/19 01:19:58;;;;;;;5.53;2.10;;;;;;;8.25;76.41;96792.00;4899718;28;20468;-44
2020/12/19 01:22:25;;;;;;;3.53;2.27;;;;;;;8.33;75.95;96788.94;4899866;29;20845;-44
2020/12/19 01:24:52;;;;;;;2.83;1.90;;;;;;;8.28;76.03;96783.13;4901852;28;20993;-45
2020/12/19 01:27:20;;;;;;;2.70;2.20;;;;;;;8.31;76.35;96789.13;4901375;29;20910;-44
2020/12/19 01:29:46;;;;;;;5.43;2.40;;;;;;;8.29;76.07;96784.00;4899665;28;21054;-43
2020/12/19 01:32:14;;;;;;;5.00;1.90;;;;;;;8.27;75.87;96787.56;4901370;29;20914;-43
2020/12/19 01:34:41;;;;;;;2.40;1.83;;;;;;;8.23;76.02;96796.44;4900706;28;20582;-44
2020/12/19 01:37:08;;;;;;;2.77;1.60;;;;;;;8.22;75.64;96792.13;4900885;29;20828;-44
2020/12/19 01:39:35;;;;;;;4.13;1.87;;;;;;;8.13;76.17;96797.75;4900270;28;20496;-43
2020/12/19 01:42:01;;;;;;;3.50;2.30;;;;;;;8.16;76.37;96797.63;4899963;29;20943;-44
2020/12/19 01:44:28;;;;;;;3.23;1.90;;;;;;;8.18;76.31;96794.88;4899655;28;20509;-44
2020/12/19 01:46:56;;;;;;;4.63;2.13;;;;;;;8.20;76.17;96789.66;4899100;29;20462;-44
2020/12/19 01:49:27;;;;;;;4.30;1.70;;;;;;;8.00;76.95;96786.31;4899336;28;20480;-44
2020/12/19 01:51:57;;;;;;;5.63;2.25;;;;;;;7.84;77.51;96791.41;4899356;29;20951;-44
2020/12/19 01:54:25;;;;;;;2.80;1.50;;;;;;;7.80;77.77;96789.03;4899281;28;20279;-44
2020/12/19 01:56:53;;;;;;;5.87;1.60;;;;;;;7.52;78.56;96748.06;4899639;29;20904;-44
2020/12/19 01:59:22;;;;;;;3.70;1.87;;;;;;;7.67;78.87;96767.22;4899218;28;20496;-44
2020/12/19 02:01:51;;;;;;;5.15;2.13;;;;;;;7.65;78.85;96779.41;4899686;29;20548;-44
2020/12/19 02:04:19;;;;;;;4.45;1.70;;;;;;;7.19;79.12;96708.25;4896073;28;20232;-44
2020/12/19 02:06:48;;;;;;;3.23;2.23;;;;;;;7.59;79.51;96782.28;4899686;29;20287;-44
2020/12/19 02:09:18;;;;;;;4.97;1.95;;;;;;;7.60;79.36;96776.19;4899334;28;21010;-44
2020/12/19 02:11:46;;;;;;;3.97;1.80;;;;;;;7.65;79.00;96764.69;4900139;29;20215;-44
2020/12/19 02:14:14;;;;;;;6.30;1.80;;;;;;;7.69;78.94;96774.00;4898610;28;20468;-49
2020/12/19 02:16:54;;;;;;;6.10;2.15;;;;;;;7.62;78.48;96753.63;4900217;29;20839;-43
2020/12/19 02:19:21;;;;;;;4.57;1.77;;;;;;;7.72;78.67;96773.03;4898860;28;20647;-43
2020/12/19 02:21:50;;;;;;;6.33;1.97;;;;;;;7.73;78.90;96772.94;4899148;29;20770;-43
2020/12/19 02:24:19;;;;;;;3.30;2.20;;;;;;;7.75;78.64;96765.09;4898112;28;20472;-43
2020/12/19 02:26:47;;;;;;;3.08;1.50;;;;;;;7.63;79.21;96760.50;4898962;29;20597;-43
2020/12/19 02:29:14;;;;;;;5.80;2.00;;;;;;;7.47;79.66;96765.59;4898222;28;20689;-42
2020/12/19 02:31:42;;;;;;;2.20;1.90;;;;;;;7.43;79.99;96758.03;4899539;29;20451;-43
2020/12/19 02:34:09;;;;;;;2.55;1.60;;;;;;;7.38;80.25;96754.81;4899330;28;20566;-43
2020/12/19 02:36:36;;;;;;;4.40;2.38;;;;;;;7.38;80.15;96749.63;4901160;29;20702;-43
2020/12/19 02:39:03;;;;;;;3.88;1.90;;;;;;;7.47;80.09;96754.38;4898689;28;20742;-42
2020/12/19 02:41:34;;;;;;;4.00;2.15;;;;;;;7.45;79.74;96761.38;4900347;29;20311;-43
2020/12/19 02:44:00;;;;;;;2.60;2.13;;;;;;;7.44;80.33;96762.28;4897385;28;20224;-43
2020/12/19 02:46:27;;;;;;;4.80;2.00;;;;;;;7.47;80.14;96757.81;4898993;29;20971;-43
2020/12/19 02:48:54;;;;;;;3.20;1.97;;;;;;;7.58;79.66;96763.31;4898100;28;20275;-42
2020/12/19 02:51:21;;;;;;;4.47;2.30;;;;;;;7.60;79.06;96755.47;4898674;29;20516;-43
2020/12/19 02:53:48;;;;;;;3.53;1.87;;;;;;;7.56;78.97;96751.34;4899058;28;20527;-43
2020/12/19 02:56:15;;;;;;;3.00;1.63;;;;;;;7.66;78.73;96755.19;4898559;29;20994;-43
2020/12/19 02:58:42;;;;;;;2.97;2.40;;;;;;;7.69;78.50;96760.19;4897573;28;20963;-43
2020/12/19 03:01:09;;;;;;;3.67;2.03;;;;;;;7.65;78.68;96761.28;4900418;29;20504;-43
2020/12/19 03:03:36;;;;;;;3.00;2.00;;;;;;;7.59;78.62;96754.63;4897651;28;20706;-43
2020/12/19 03:06:03;;;;;;;3.50;1.80;;;;;;;7.49;78.96;96742.19;4899830;29;21018;-43
2020/12/19 03:08:30;;;;;;;18.50;2.22;;;;;;;7.49;78.98;96749.94;4900389;28;20327;-42
2020/12/19 03:10:59;;;;;;;4.43;2.10;;;;;;;7.55;78.83;96752.25;4899582;29;20215;-43
2020/12/19 03:13:26;;;;;;;4.10;1.70;;;;;;;7.48;79.49;96756.91;4894091;28;20927;-43
2020/12/19 03:15:53;;;;;;;3.00;1.80;;;;;;;7.27;79.12;96713.03;4898298;29;20686;-43
2020/12/19 03:18:21;;;;;;;5.78;1.90;;;;;;;7.23;79.34;96724.47;4896642;28;20719;-47
2020/12/19 03:20:47;;;;;;;4.50;1.80;;;;;;;7.26;79.78;96739.84;4898096;29;20624;-44
2020/12/19 03:23:14;;;;;;;3.80;1.90;;;;;;;7.18;80.05;96747.97;4897532;28;21010;-43
2020/12/19 03:25:41;;;;;;;8.33;1.90;;;;;;;7.17;80.21;96748.88;4898316;29;21194;-44
2020/12/19 03:28:08;;;;;;;3.70;1.83;;;;;;;7.19;80.13;96748.78;4898026;28;20568;-43
2020/12/19 03:30:35;;;;;;;5.85;1.83;;;;;;;7.14;80.15;96743.00;4899053;29;20832;-44
2020/12/19 03:33:03;;;;;;;4.10;1.80;;;;;;;7.15;80.28;96736.94;4898043;28;20798;-43
2020/12/19 03:35:33;;;;;;;3.78;1.92;;;;;;;7.16;80.03;96736.00;4899036;29;20824;-44
2020/12/19 03:38:00;;;;;;;4.15;2.35;;;;;;;6.98;80.29;96703.19;4897051;29;20271;-44
2020/12/19 03:40:27;;;;;;;2.40;1.70;;;;;;;7.13;80.24;96729.22;4897523;29;20299;-44
2020/12/19 03:42:54;;;;;;;2.47;1.48;;;;;;;7.17;80.11;96733.34;4897776;29;20240;-44
2020/12/19 03:45:22;;;;;;;2.73;1.73;;;;;;;7.16;79.82;96728.25;4899207;28;20590;-44
2020/12/19 03:47:48;;;;;;;9.90;2.70;;;;;;;7.22;79.85;96728.78;4898726;29;20986;-44
2020/12/19 03:50:17;;;;;;;5.32;2.10;;;;;;;7.19;79.84;96731.53;4897642;28;20228;-43
2020/12/19 03:52:44;;;;;;;3.87;1.93;;;;;;;7.07;80.31;96728.69;4899165;29;20631;-44
2020/12/19 03:55:11;;;;;;;6.03;2.40;;;;;;;7.13;80.37;96723.22;4898048;28;20874;-44
2020/12/19 03:57:37;;;;;;;3.20;1.90;;;;;;;7.05;80.35;96725.31;4901108;29;20197;-44
2020/12/19 04:00:06;;;;;;;5.85;2.10;;;;;;;6.92;80.69;96725.03;4901307;28;20682;-44
2020/12/19 04:02:33;;;;;;;3.65;1.95;;;;;;;6.84;81.18;96721.13;4899081;29;20208;-44
2020/12/19 04:05:00;;;;;;;3.75;1.65;;;;;;;6.76;81.53;96724.06;4897068;28;20339;-44
2020/12/19 04:07:27;;;;;;;3.42;2.05;;;;;;;6.78;81.49;96724.00;4898276;29;20596;-43
2020/12/19 04:09:55;;;;;;;5.63;1.95;;;;;;;6.77;81.82;96714.56;4897176;28;20759;-43
2020/12/19 04:12:21;;;;;;;3.22;1.58;;;;;;;6.80;81.77;96715.25;4899761;29;20680;-44
2020/12/19 04:14:48;;;;;;;2.65;1.98;;;;;;;6.84;81.62;96715.97;4899646;28;20734;-43
2020/12/19 04:17:15;;;;;;;3.10;1.92;;;;;;;6.82;81.79;96716.03;4897910;29;20200;-44
2020/12/19 04:19:42;;;;;;;2.35;1.52;;;;;;;6.28;81.79;96642.69;4897849;28;20287;-43
2020/12/19 04:22:09;;;;;;;4.15;2.13;;;;;;;6.69;82.05;96714.06;4897891;29;20216;-46
2020/12/19 04:24:37;;;;;;;4.65;2.50;;;;;;;6.63;81.97;96696.22;4897776;28;20674;-44
2020/12/19 04:27:04;;;;;;;4.82;2.30;;;;;;;6.08;81.71;96614.28;4899073;29;20258;-44
2020/12/19 04:29:31;;;;;;;2.88;1.73;;;;;;;6.64;82.43;96703.91;4898912;28;20604;-45
2020/12/19 04:31:59;;;;;;;4.70;2.20;;;;;;;6.75;81.92;96711.19;4898064;29;20247;-45
2020/12/19 04:34:26;;;;;;;3.63;1.90;;;;;;;6.79;82.12;96710.16;4901929;28;20228;-39
2020/12/19 04:36:53;;;;;;;3.00;1.65;;;;;;;6.76;81.89;96707.69;4899906;29;20263;-39
2020/12/19 04:39:21;;;;;;;4.90;1.88;;;;;;;6.84;81.78;96710.78;4900733;28;20299;-39
2020/12/19 04:41:49;;;;;;;12.20;2.60;;;;;;;6.91;81.22;96712.19;4899794;29;20307;-40
2020/12/19 04:44:17;;;;;;;4.38;3.28;;;;;;;6.77;81.65;96719.72;4904283;28;20687;-43
2020/12/19 04:46:44;;;;;;;5.30;1.80;;;;;;;6.78;81.96;96708.47;4906766;29;20627;-39
2020/12/19 04:49:11;;;;;;;3.15;1.77;;;;;;;6.80;81.74;96711.81;4899907;28;20279;-38
2020/12/19 04:51:39;;;;;;;3.05;2.15;;;;;;;6.80;82.49;96704.06;4899674;29;20638;-38
2020/12/19 04:54:06;;;;;;;3.50;1.80;;;;;;;6.77;82.05;96710.22;4897245;28;20268;-39
2020/12/19 04:56:33;;;;;;;4.72;1.92;;;;;;;6.78;82.21;96711.06;4898124;29;20654;-39
2020/12/19 04:59:04;;;;;;;3.17;2.08;;;;;;;6.80;82.37;96720.44;4895841;28;20314;-39
2020/12/19 05:01:31;;;;;;;2.97;1.40;;;;;;;6.81;82.01;96705.72;4897890;29;20284;-39
2020/12/19 05:03:58;;;;;;;5.78;1.65;;;;;;;6.81;81.95;96716.06;4897742;28;20607;-39
2020/12/19 05:06:27;;;;;;;4.20;1.70;;;;;;;7.02;81.50;96715.09;4897375;29;20457;-39
2020/12/19 05:08:55;;;;;;;5.35;1.95;;;;;;;6.89;81.35;96708.81;4896392;28;20408;-39
2020/12/19 05:11:24;;;;;;;5.22;2.45;;;;;;;6.78;80.83;96718.81;4897228;29;20275;-39
2020/12/19 05:13:51;;;;;;;3.35;2.28;;;;;;;6.51;81.49;96671.78;4896704;28;20876;-39
2020/12/19 05:16:19;;;;;;;2.80;1.73;;;;;;;6.82;81.46;96710.00;4893287;29;20200;-39
2020/12/19 05:18:47;;;;;;;3.45;1.80;;;;;;;6.81;81.34;96708.31;4896303;28;20595;-39
2020/12/19 05:21:15;;;;;;;6.60;2.42;;;;;;;6.80;81.48;96704.06;4899096;29;20243;-39
2020/12/19 05:23:44;;;;;;;2.20;1.52;;;;;;;6.57;81.36;96675.81;4899699;28;20252;-39
2020/12/19 05:26:13;;;;;;;8.25;1.70;;;;;;;6.76;81.30;96702.50;4898705;29;20649;-38
2020/12/19 05:28:42;;;;;;;4.70;2.45;;;;;;;6.78;81.13;96708.47;4899573;28;20628;-38
2020/12/19 05:31:10;;;;;;;3.65;1.70;;;;;;;6.71;81.34;96707.06;4899876;29;20192;-38
2020/12/19 05:33:40;;;;;;;7.18;1.90;;;;;;;6.73;81.65;96694.91;4900271;28;20217;-39
2020/12/19 05:36:18;;;;;;;2.70;1.98;;;;;;;6.70;81.73;96702.81;4899940;29;20299;-38
2020/12/19 05:38:45;;;;;;;3.13;1.85;;;;;;;6.61;81.72;96700.63;4899977;28;20687;-38
2020/12/19 05:41:12;;;;;;;5.50;1.83;;;;;;;6.63;81.88;96710.00;4902582;29;20223;-38
2020/12/19 05:43:47;;;;;;;2.13;1.40;;;;;;;6.52;82.14;96719.97;4899535;28;20242;-38
2020/12/19 05:46:27;;;;;;;3.22;1.60;;;;;;;6.57;82.89;96706.84;4900167;29;20209;-38
2020/12/19 05:48:56;;;;;;;2.40;1.40;;;;;;;6.67;81.98;96705.50;4899649;28;20326;-38
2020/12/19 05:51:24;;;;;;;3.85;2.10;;;;;;;6.60;82.02;96696.34;4899707;29;20232;-38
2020/12/19 05:53:52;;;;;;;3.17;1.60;;;;;;;6.61;81.79;96704.06;4898732;28;20757;-38
2020/12/19 05:56:20;;;;;;;2.65;1.30;;;;;;;6.63;81.89;96704.81;4899438;29;20694;-38
2020/12/19 05:58:47;;;;;;;3.55;1.80;;;;;;;6.55;82.18;96706.91;4900093;28;20227;-38
2020/12/19 06:01:16;;;;;;;4.53;2.13;;;;;;;6.61;82.33;96704.06;4901268;29;20216;-38
2020/12/19 06:03:47;;;;;;;3.70;1.50;;;;;;;6.60;82.12;96691.19;4898978;28;20228;-39
2020/12/19 06:06:16;;;;;;;6.95;2.10;;;;;;;6.68;81.79;96699.44;4898965;29;20238;-38
2020/12/19 06:08:43;;;;;;;2.80;1.60;;;;;;;6.63;82.26;96704.81;4899322;28;20244;-39
2020/12/19 06:11:14;;;;;;;3.10;1.90;;;;;;;6.57;82.42;96697.31;4898544;29;20287;-38
2020/12/19 06:13:48;;;;;;;2.90;1.35;;;;;;;6.59;82.39;96712.78;4898263;28;20616;-40
2020/12/19 06:16:17;;;;;;;2.67;1.50;;;;;;;6.48;82.36;96712.44;4900122;29;20609;-38
2020/12/19 06:19:00;;;;;;;4.25;1.70;;;;;;;6.48;82.42;96715.03;4898517;28;20302;-38
2020/12/19 06:21:29;;;;;;;3.08;1.63;;;;;;;6.41;82.70;96711.84;4895763;29;20243;-38
2020/12/19 06:23:56;;;;;;;4.90;1.65;;;;;;;6.35;83.26;96717.28;4899667;28;20759;-38
2020/12/19 06:26:36;;;;;;;3.90;1.80;;;;;;;6.30;83.55;96716.66;4899349;29;20212;-39
2020/12/19 06:29:04;;;;;;;4.82;1.95;;;;;;;6.37;83.39;96712.91;4898635;28;20228;-43
2020/12/19 06:31:32;;;;;;;4.40;2.30;;;;;;;6.44;83.44;96726.38;4898382;29;20267;-38
2020/12/19 06:34:04;;;;;;;3.80;2.22;;;;;;;6.40;82.69;96710.16;4900223;28;20706;-38
2020/12/19 06:36:33;;;;;;;8.88;1.95;;;;;;;6.37;82.81;96719.81;4898923;29;20696;-38
2020/12/19 06:39:09;;;;;;;3.08;1.52;;;;;;;6.18;83.11;96711.19;4898036;28;20216;-38
2020/12/19 06:41:44;;;;;;;4.53;2.70;;;;;;;6.18;82.86;96722.34;4899300;29;20212;-38
2020/12/19 06:44:14;;;;;;;4.20;2.20;;;;;;;6.20;82.94;96719.69;4897745;28;20864;-38
2020/12/19 06:46:41;;;;;;;3.70;1.85;;;;;;;6.21;83.73;96724.81;4899379;29;20292;-38
2020/12/19 06:49:31;;;;;;;2.33;1.50;;;;;;;6.26;83.03;96722.03;4898610;28;20220;-38
2020/12/19 06:52:07;;;;;;;2.50;1.70;;;;;;;6.24;83.22;96713.47;4898077;29;20770;-38
2020/12/19 06:54:36;;;;;;;2.30;1.40;;;;;;;6.23;83.45;96716.97;4898276;28;20637;-38
2020/12/19 06:57:04;;;;;;;3.08;1.73;;;;;;;6.23;83.15;96717.81;4897433;29;20797;-38
2020/12/19 06:59:33;;;;;;;3.47;1.42;;;;;;;6.24;83.45;96721.22;4897488;28;20690;-38
2020/12/19 07:02:16;;;;;;;2.83;1.73;;;;;;;6.13;83.45;96715.69;4897822;29;20220;-38
2020/12/19 07:04:43;;;;;;;2.40;1.33;;;;;;;6.14;83.26;96717.38;4897539;28;20581;-39
2020/12/19 07:07:12;;;;;;;3.75;2.00;;;;;;;5.88;82.83;96668.56;4897192;29;20235;-38
2020/12/19 07:09:40;;;;;;;4.00;2.00;;;;;;;6.21;83.08;96709.31;4897678;28;20774;-38
2020/12/19 07:12:30;;;;;;;2.70;1.70;;;;;;;6.16;83.22;96707.81;4897566;29;20185;-39
2020/12/19 07:14:57;;;;;;;3.15;1.65;;;;;;;6.19;83.47;96711.09;4899304;28;20611;-38
2020/12/19 07:17:24;;;;;;;3.20;1.52;;;;;;;6.27;83.07;96714.19;4898506;29;20573;-39
2020/12/19 07:19:58;;;;;;;2.75;1.75;;;;;;;6.28;82.90;96715.88;4897522;28;20754;-38
2020/12/19 07:22:27;;;;;;;2.05;1.50;;;;;;;6.20;83.05;96711.94;4893843;29;20674;-38
2020/12/19 07:24:55;;;;;;;2.78;1.42;;;;;;;6.31;82.90;96725.22;4896819;28;20224;-43
2020/12/19 07:27:22;;;;;;;4.78;1.70;;;;;;;6.25;83.09;96722.94;4898516;29;20299;-38
2020/12/19 07:29:49;;;;;;;4.78;1.55;;;;;;;6.31;82.92;96732.97;4898156;28;20393;-38
2020/12/19 07:32:16;;;;;;;1.38;0.93;;;;;;;6.34;82.76;96731.09;4897463;29;20271;-38
2020/12/19 07:34:43;;;;;;;3.15;1.85;;;;;;;6.35;82.45;96743.13;4898190;28;20365;-38
2020/12/19 07:37:10;;;;;;;2.53;1.70;;;;;;;6.33;82.73;96746.72;4896951;29;20291;-38
2020/12/19 07:39:38;;;;;;;2.97;1.45;;;;;;;6.28;82.24;96740.88;4896834;28;20766;-38
2020/12/19 07:42:06;;;;;;;3.30;1.58;;;;;;;6.27;82.64;96739.22;4897085;29;20302;-38
2020/12/19 07:44:34;;;;;;;3.53;1.55;;;;;;;6.31;82.16;96733.84;4897189;28;20350;-38
2020/12/19 07:47:02;;;;;;;2.60;1.50;;;;;;;6.42;81.69;96741.13;4896916;29;20206;-38
2020/12/19 07:49:35;;;;;;;3.88;1.20;;;;;;;6.38;81.82;96726.66;4897416;28;20228;-38
2020/12/19 07:52:07;;;;;;;3.20;1.95;;;;;;;7.29;81.30;96734.53;4897222;29;20647;-38
2020/12/19 07:54:34;;;;;;;4.85;1.50;;;;;;;8.61;76.77;96739.94;4896720;28;20259;-38
2020/12/19 07:57:03;;;;;;;3.00;1.50;;;;;;;9.63;72.80;96716.13;4897341;29;20613;-38
2020/12/19 07:59:30;;;;;;;1.97;1.30;;;;;;;10.99;68.15;96732.31;4897631;28;20264;-39
2020/12/19 08:02:02;;;;;;;1.97;1.20;;;;;;;11.98;64.59;96736.34;4897752;29;20567;-39
2020/12/19 08:04:31;;;;;;;3.63;1.40;;;;;;;12.92;61.89;96729.88;4897098;28;20959;-39
2020/12/19 08:06:58;;;;;;;2.67;1.70;;;;;;;13.87;58.97;96739.63;4898873;29;20486;-40
2020/12/19 08:09:30;;;;;;;4.53;2.53;;;;;;;14.60;55.75;96736.69;4897480;28;20486;-40
2020/12/19 08:12:00;;;;;;;4.27;2.70;;;;;;;15.10;54.65;96732.84;4897354;29;20543;-40
2020/12/19 08:14:29;;;;;;;5.03;2.90;;;;;;;15.39;53.49;96741.94;4896740;28;20480;-40
2020/12/19 08:16:57;;;;;;;3.97;2.30;;;;;;;15.99;52.59;96737.03;4897347;29;20985;-40
2020/12/19 08:19:35;;;;;;;4.03;2.10;;;;;;;16.83;51.10;96722.91;4897310;28;20570;-40
2020/12/19 08:22:04;;;;;;;4.30;2.20;;;;;;;17.70;49.38;96729.25;4897401;29;20971;-40
2020/12/19 08:24:31;;;;;;;3.20;2.13;;;;;;;18.41;47.45;96728.94;4897247;28;20530;-40
2020/12/19 08:27:26;;;;;;;7.10;4.67;;;;;;;18.69;45.81;96720.19;4897929;29;21251;-40
2020/12/19 08:30:10;;;;;;;11.00;7.73;;;;;;;18.95;44.48;96702.75;4891951;28;21042;-40
2020/12/19 08:32:41;;;;;;;12.90;8.63;;;;;;;19.09;43.82;96719.97;4897050;29;20838;-39
2020/12/19 08:35:09;;;;;;;13.70;9.20;;;;;;;18.80;43.87;96733.19;4896916;28;20562;-40
2020/12/19 08:37:36;;;;;;;11.37;7.70;;;;;;;19.42;42.60;96732.63;4897515;29;20790;-40
2020/12/19 08:40:11;;;;;;;12.40;8.30;;;;;;;19.35;42.65;96727.13;4896313;28;20937;-40
2020/12/19 08:42:43;;;;;;;11.30;7.13;;;;;;;19.00;43.03;96732.19;4896556;29;20891;-40
2020/12/19 08:45:29;;;;;;;10.60;7.17;;;;;;;19.39;43.01;96735.56;4895439;28;20476;-40
2020/12/19 08:47:58;;;;;;;9.10;6.30;;;;;;;19.98;42.38;96728.88;4896985;29;20931;-40
2020/12/19 08:50:27;;;;;;;16.07;5.83;;;;;;;20.32;42.07;96724.59;4896649;28;20555;-40
2020/12/19 08:53:21;;;;;;;9.33;5.90;;;;;;;20.63;41.68;96725.06;4896648;29;20483;-40
2020/12/19 08:55:49;;;;;;;7.60;5.70;;;;;;;21.33;40.37;96725.72;4898413;29;20487;-40
2020/12/19 08:58:24;;;;;;;6.63;4.97;;;;;;;22.01;39.89;96721.25;4900102;28;20970;-40
2020/12/19 09:00:53;;;;;;;9.33;4.63;;;;;;;22.31;38.37;96724.13;4901510;29;20791;-40
2020/12/19 09:03:30;;;;;;;7.93;5.20;;;;;;;22.59;38.60;96722.84;4895434;28;21036;-40
2020/12/19 09:06:02;;;;;;;6.80;4.87;;;;;;;22.77;38.01;96720.88;4900245;29;20452;-41
2020/12/19 09:08:33;;;;;;;7.10;3.80;;;;;;;23.58;36.74;96728.53;4901139;28;20864;-41
2020/12/19 09:11:01;;;;;;;3.97;2.60;;;;;;;22.74;36.36;96726.50;4900331;29;20483;-40
2020/12/19 09:13:28;;;;;;;3.90;2.60;;;;;;;21.77;38.47;96724.66;4899655;28;20939;-40
2020/12/19 09:16:04;;;;;;;8.33;3.70;;;;;;;22.51;37.56;96730.81;4900039;29;20543;-40
2020/12/19 09:18:33;;;;;;;5.77;2.57;;;;;;;21.86;37.94;96734.28;4899492;28;20471;-41
2020/12/19 09:21:02;;;;;;;7.03;3.13;;;;;;;21.14;39.58;96741.81;4898125;29;20916;-45
2020/12/19 09:23:30;;;;;;;6.77;3.70;;;;;;;21.36;39.78;96736.00;4898226;28;21021;-44
2020/12/19 09:25:58;;;;;;;13.30;7.10;;;;;;;21.09;39.43;96738.84;4899847;29;21011;-44
2020/12/19 09:28:26;;;;;;;15.10;8.90;;;;;;;21.46;39.00;96735.91;4898769;28;20908;-44
2020/12/19 09:30:54;;;;;;;9.30;5.17;;;;;;;22.03;37.85;96741.31;4899059;29;20468;-44
2020/12/19 09:33:22;;;;;;;14.23;8.73;;;;;;;22.68;37.50;96732.47;4894276;28;20959;-45
2020/12/19 09:35:50;;;;;;;10.03;5.37;;;;;;;21.88;38.58;96737.59;4899217;29;20915;-44
2020/12/19 09:38:17;;;;;;;13.90;8.43;;;;;;;21.68;38.87;96735.38;4898849;28;20457;-44
2020/12/19 09:40:44;;;;;;;9.53;5.30;;;;;;;22.08;38.61;96741.63;4899605;29;20919;-44
2020/12/19 09:43:13;;;;;;;8.23;3.93;;;;;;;21.11;38.86;96698.94;4897964;28;20931;-44
2020/12/19 09:45:40;;;;;;;4.50;3.33;;;;;;;19.94;41.29;96727.50;4899330;29;20852;-44
2020/12/19 09:48:07;;;;;;;6.50;4.07;;;;;;;19.79;41.86;96728.97;4898834;28;21022;-44
2020/12/19 09:50:35;;;;;;;4.20;3.20;;;;;;;19.18;42.99;96733.13;4899745;29;21165;-44
2020/12/19 09:53:02;;;;;;;4.23;1.83;;;;;;;19.13;42.63;96723.97;4898535;28;20991;-41
2020/12/19 09:55:29;;;;;;;3.33;1.97;;;;;;;19.04;42.44;96717.75;4899298;29;21069;-43
2020/12/19 09:57:56;;;;;;;4.90;2.57;;;;;;;18.82;42.94;96718.09;4901472;29;20454;-43
2020/12/19 10:00:23;;;;;;;1.97;1.50;;;;;;;18.47;42.33;96665.13;4898039;28;20499;-43
2020/12/19 10:02:53;;;;;;;2.00;1.30;;;;;;;18.59;43.75;96718.53;4898829;29;20601;-43
2020/12/19 10:05:20;;;;;;;1.70;1.47;;;;;;;18.62;43.38;96708.53;4893891;29;20539;-43
2020/12/19 10:07:48;;;;;;;3.03;1.57;;;;;;;18.53;43.66;96714.66;4898426;29;20491;-43
2020/12/19 10:10:15;;;;;;;4.10;0.90;;;;;;;18.66;43.85;96709.91;4899702;28;20794;-43
2020/12/19 10:12:42;;;;;;;2.30;1.20;;;;;;;18.77;42.98;96712.41;4899339;29;20515;-43
2020/12/19 10:15:10;;;;;;;1.67;1.27;;;;;;;19.10;42.79;96714.50;4913126;23;20559;-48
2020/12/19 10:17:38;;;;;;;3.80;1.50;;;;;;;18.60;42.74;96707.00;4898512;29;20993;-49
2020/12/19 10:20:06;;;;;;;2.60;1.63;;;;;;;18.38;44.29;96710.78;4897675;28;20480;-49
2020/12/19 10:22:33;;;;;;;2.40;1.23;;;;;;;18.46;43.20;96700.38;4898937;29;20836;-48
2020/12/19 10:25:01;;;;;;;1.60;1.17;;;;;;;18.64;43.11;96700.50;4896226;28;20840;-48
2020/12/19 10:27:28;;;;;;;1.77;1.10;;;;;;;18.71;43.23;96702.41;4897993;29;20491;-48
2020/12/19 10:29:54;;;;;;;1.37;1.10;;;;;;;18.38;42.57;96705.50;4897317;28;20571;-48
2020/12/19 10:32:21;;;;;;;2.60;1.27;;;;;;;18.42;43.26;96704.25;4898887;29;20531;-48
2020/12/19 10:34:48;;;;;;;13.53;1.40;;;;;;;18.26;43.47;96703.94;4898037;28;20472;-49
2020/12/19 10:37:15;;;;;;;2.57;1.37;;;;;;;18.34;42.71;96703.31;4898847;29;20456;-48
2020/12/19 10:39:42;;;;;;;3.13;1.70;;;;;;;18.50;42.80;96703.56;4896523;28;20801;-48
2020/12/19 10:42:09;;;;;;;2.30;1.20;;;;;;;18.65;42.63;96702.16;4898119;29;20590;-48
2020/12/19 10:44:36;;;;;;;1.77;1.10;;;;;;;18.64;42.40;96690.75;4898115;28;20478;-49
2020/12/19 10:47:03;;;;;;;8.20;1.20;;;;;;;18.73;41.78;96695.19;4899108;29;21010;-48
2020/12/19 10:49:30;;;;;;;2.00;1.13;;;;;;;18.79;42.57;96688.53;4897593;28;20504;-48
2020/12/19 10:51:56;;;;;;;1.63;1.20;;;;;;;19.28;42.19;96690.88;4898242;29;20488;-48
2020/12/19 10:54:23;;;;;;;3.13;1.07;;;;;;;19.18;41.68;96688.25;4897495;28;20851;-48
2020/12/19 10:56:59;;;;;;;2.00;1.10;;;;;;;18.61;41.97;96684.94;4897535;29;20971;-49
2020/12/19 10:59:27;;;;;;;3.27;1.40;;;;;;;17.14;44.97;96689.56;4897477;28;21229;-49
2020/12/19 11:01:54;;;;;;;3.53;1.53;;;;;;;16.99;46.38;96685.59;4897606;29;20970;-48
2020/12/19 11:04:21;;;;;;;1.50;1.20;;;;;;;15.72;47.37;96692.00;4897343;28;20994;-49
2020/12/19 11:06:48;;;;;;;1.63;1.17;;;;;;;14.90;49.52;96691.59;4898081;29;20810;-48
2020/12/19 11:09:16;;;;;;;2.43;1.10;;;;;;;14.47;51.35;96685.34;4897440;28;20483;-48
2020/12/19 11:11:49;;;;;;;3.03;1.37;;;;;;;14.12;52.52;96687.13;4897148;29;20787;-48
2020/12/19 11:14:16;;;;;;;3.83;1.30;;;;;;;14.03;52.71;96682.59;4896510;28;20563;-49
2020/12/19 11:16:45;;;;;;;1.70;1.10;;;;;;;13.94;53.40;96688.50;4897576;29;20946;-48
2020/12/19 11:19:13;;;;;;;4.97;1.80;;;;;;;14.00;54.38;96681.03;4896011;28;20500;-48
2020/12/19 11:21:44;;;;;;;4.90;2.00;;;;;;;14.09;54.94;96682.13;4897745;29;20820;-49
2020/12/19 11:24:13;;;;;;;3.07;1.77;;;;;;;14.17;54.70;96677.16;4896009;28;20476;-48
2020/12/19 11:26:40;;;;;;;4.23;2.43;;;;;;;14.08;54.56;96676.06;4898099;29;20452;-48
2020/12/19 11:29:08;;;;;;;2.23;1.50;;;;;;;15.01;52.30;96668.84;4899084;28;20476;-49
2020/12/19 11:31:36;;;;;;;12.07;1.97;;;;;;;16.10;50.23;96679.19;4899060;29;20935;-48
2020/12/19 11:34:04;;;;;;;2.90;1.40;;;;;;;16.00;48.53;96628.41;4897496;28;20609;-50
2020/12/19 11:36:38;;;;;;;2.93;1.70;;;;;;;15.58;50.53;96666.03;4899123;29;20861;-48
2020/12/19 11:39:06;;;;;;;2.10;1.40;;;;;;;15.18;50.35;96641.31;4897512;28;20815;-48
2020/12/19 11:41:36;;;;;;;3.47;1.90;;;;;;;14.75;51.48;96669.19;4898088;29;20448;-48
2020/12/19 11:44:03;;;;;;;4.23;1.50;;;;;;;14.39;52.76;96672.84;4897410;28;20559;-48
2020/12/19 11:46:30;;;;;;;3.30;1.63;;;;;;;14.41;52.66;96675.34;4897447;29;20531;-48